British Ensign — MMER9 — position and weather

sailwx.info

Track history (hours):
 
Tides and Currents Weather Stations Pressure Air Temp Water Temp Dewpoint Dewpoint Depression Visibility Wind Speed Wind Dir Waves Ship Positions

British Ensign

Last reported at 2014-Sep-22 13:00 UTC. Time now 2014-Sep-22 16:16 UTC.
Position N 56°54' E 019°18'.

Length 184.2 m; beam 27.4 m; draft 11.3 m.

Type: Ship. MMSI: 235010980.

Barometer 1001.2 mb
Air temperature 16.5 ° C
Visibility: greater than 5.4 NM
Dewpoint 9.9 ° C
Water temperature 15.0 ° C

Date/timePositionNaut miles runAvg speedWind from/ knotsBaromVisibWave heightAir tempDewpointWater temp
2014-Sep-22 13:00N 56°54' E 019°18'10114.4 1001.2 5.4 16.5 9.915.0
2014-Sep-22 06:00N 58°24' E 020°42'10512.4 210 / 9998.610.8 0.515.510.8
2014-Sep-21 21:33N 59°36' E 023°09'1313.2
2014-Sep-21 20:33N 59°39' E 023°34'1313.1
2014-Sep-21 19:33N 59°43' E 023°59'1313.1
2014-Sep-21 18:33N 59°47' E 024°24'1812.9
2014-Sep-21 17:09N 59°51' E 024°59'427.8
2014-Sep-21 17:00N 59°48' E 025°06'1113.5 110 / 301003.8 5.4 0.515.011.3
2014-Sep-21 16:12N 59°54' E 025°23'1012.4
2014-Sep-21 15:23N 60°03' E 025°35'  
2014-Sep-19 04:14N 60°14' E 025°35'1112.1
2014-Sep-19 03:18N 60°03' E 025°34'3 1.5
2014-Sep-19 01:00N 60°00' E 025°30'1 0.3 180 / 61024.3 5.4 16.010.3
2014-Sep-18 21:16N 60°01' E 025°30'0 0.0
2014-Sep-18 20:10N 60°01' E 025°30'0 0.0
2014-Sep-18 19:31N 60°01' E 025°30'0 0.0
2014-Sep-18 18:31N 60°01' E 025°30'3 5.9
2014-Sep-18 18:00N 60°00' E 025°24'3 6.6 170 / 81024.8 5.4 15.010.3
2014-Sep-18 17:31N 60°01' E 025°30'0 0.0
2014-Sep-18 16:31N 60°01' E 025°30'3 5.9
2014-Sep-18 16:00N 60°00' E 025°24'3 4.1 230 / 31027.2 5.4 15.0 8.0
2014-Sep-18 15:13N 60°01' E 025°30'0 0.0
2014-Sep-18 14:31N 60°01' E 025°30'1 0.8
2014-Sep-18 13:00N 60°00' E 025°30'1 0.5 1027.1 5.4 17.011.5
2014-Sep-18 10:28N 60°01' E 025°30'0 0.0
2014-Sep-18 09:28N 60°01' E 025°30'0 0.1
2014-Sep-18 08:31N 60°01' E 025°30'0 0.0
2014-Sep-18 07:19N 60°01' E 025°30'0 0.0
2014-Sep-18 06:31N 60°01' E 025°30'0 0.0
2014-Sep-18 05:31N 60°01' E 025°30'0 0.0
2014-Sep-18 04:31N 60°01' E 025°30'0 0.0
2014-Sep-18 01:25N 60°01' E 025°30'3 2.2
2014-Sep-18 00:00N 60°00' E 025°24'3 5.5 1027.3 5.4 15.0 9.2
2014-Sep-17 23:25N 60°01' E 025°30'0 0.0
2014-Sep-17 22:31N 60°01' E 025°30'0 0.0
2014-Sep-17 21:25N 60°01' E 025°30'0 0.0
2014-Sep-17 20:31N 60°01' E 025°30'0 0.0
2014-Sep-17 19:31N 60°01' E 025°30'0 0.0
2014-Sep-17 18:19N 60°01' E 025°30'0 0.0
2014-Sep-17 16:31N 60°01' E 025°30'0 0.0
2014-Sep-17 13:25N 60°01' E 025°30'3 7.3
2014-Sep-17 13:00N 60°00' E 025°24'3 5.0 1028.4 5.4 16.010.3
2014-Sep-17 12:22N 60°01' E 025°30'0 0.0
2014-Sep-17 11:31N 60°01' E 025°30'0 0.0
2014-Sep-17 10:31N 60°01' E 025°30'0 0.0
2014-Sep-17 09:31N 60°01' E 025°30'3 5.9
2014-Sep-17 09:00N 60°00' E 025°24'3 6.6 190 / 71029.110.8 16.0 9.3
2014-Sep-17 08:31N 60°01' E 025°30'0 0.0
2014-Sep-17 07:25N 60°01' E 025°30'0 0.0
2014-Sep-17 06:31N 60°01' E 025°30'0 0.0
2014-Sep-17 05:28N 60°01' E 025°30'3 6.5
2014-Sep-17 05:00N 60°00' E 025°24'3 4.6 14.8 9.6
2014-Sep-17 04:19N 60°01' E 025°30'0 0.0
2014-Sep-17 03:31N 60°01' E 025°30'0 0.0
2014-Sep-17 02:22N 60°01' E 025°30'0 0.0
2014-Sep-17 01:28N 60°01' E 025°30'0 0.0
2014-Sep-17 00:10N 60°01' E 025°30'0 0.0
2014-Sep-16 23:25N 60°01' E 025°30'0 0.0
2014-Sep-16 22:31N 60°01' E 025°30'0 0.0
2014-Sep-16 21:19N 60°01' E 025°30'3 9.4
2014-Sep-16 21:00N 60°00' E 025°24'3 6.6 160 / 31029.8 5.4 14.010.2
2014-Sep-16 20:31N 60°01' E 025°30'0 0.0
2014-Sep-16 19:31N 60°01' E 025°30'0 0.0
2014-Sep-16 18:31N 60°01' E 025°30'0 0.0
2014-Sep-16 17:31N 60°01' E 025°30'1 2.4
2014-Sep-16 17:00N 60°00' E 025°30'1 2.4 100 / 31032.5 5.4 15.0 9.2
2014-Sep-16 16:28N 60°01' E 025°30'3 6.3
2014-Sep-16 16:00N 60°00' E 025°24'0 0.0 1029.910.8 16.010.3
2014-Sep-16 15:00N 60°00' E 025°24'3 0.4 1029.8 5.4 16.010.3
2014-Sep-16 07:31N 60°01' E 025°30'0 0.1
2014-Sep-16 06:31N 60°01' E 025°30'0 0.0
2014-Sep-16 05:31N 60°01' E 025°30'0 0.0
2014-Sep-16 04:22N 60°01' E 025°30'0 0.0
2014-Sep-16 03:31N 60°01' E 025°30'0 0.0
2014-Sep-16 02:31N 60°01' E 025°30'0 0.1
2014-Sep-16 01:31N 60°01' E 025°29'0 0.1
2014-Sep-16 00:28N 60°01' E 025°29'0 0.0
2014-Sep-15 23:31N 60°01' E 025°30'0 0.0
2014-Sep-15 22:31N 60°01' E 025°30'0 0.0
2014-Sep-15 21:31N 60°01' E 025°30'0 0.1
2014-Sep-15 20:28N 60°01' E 025°30'0 0.0
2014-Sep-15 17:07N 60°01' E 025°30'0 0.0
2014-Sep-15 16:31N 60°01' E 025°30'0 0.0
2014-Sep-15 15:19N 60°01' E 025°30'0 0.0
2014-Sep-15 14:31N 60°01' E 025°30'0 0.0
2014-Sep-15 13:16N 60°01' E 025°30'0 0.1
2014-Sep-15 12:31N 60°01' E 025°30'0 0.1
2014-Sep-15 11:31N 60°01' E 025°29'0 0.0
2014-Sep-15 09:31N 60°01' E 025°30'3 5.6
2014-Sep-15 09:00N 60°00' E 025°24'3 6.3 050 / 41031.410.8 0.516.011.4
2014-Sep-15 08:31N 60°01' E 025°30'0 0.0
2014-Sep-15 07:31N 60°01' E 025°30'3 5.7
2014-Sep-15 07:00N 60°00' E 025°24'3 6.6 320 / 41029.810.8 15.012.3
2014-Sep-15 06:31N 60°01' E 025°30'0 0.0
2014-Sep-15 05:34N 60°01' E 025°30'7 6.7
2014-Sep-15 04:34N 59°54' E 025°29'1212.1
2014-Sep-15 03:33N 59°49' E 025°07'1425.5
2014-Sep-15 03:00N 59°42' E 024°42'3 7.1 360 / 31031.510.8 15.513.0
2014-Sep-15 02:33N 59°45' E 024°41'1413.8
2014-Sep-15 01:33N 59°42' E 024°14'1413.6
2014-Sep-15 00:33N 59°38' E 023°48'1414.0
2014-Sep-14 23:33N 59°34' E 023°22'1414.0
2014-Sep-14 22:32N 59°30' E 022°55'915.8
2014-Sep-14 22:00N 59°24' E 022°42'4949.3 340 / 101031.1 5.4 16.010.3
2014-Sep-14 21:00N 59°18' E 021°06'4812.0 350 / 101030.8 5.4 16.010.3
2014-Sep-14 17:00N 58°30' E 021°12'5814.4 060 / 91030.410.8 0.516.7 9.7
2014-Sep-14 13:00N 57°42' E 020°12'3010.6 090 / 181028.8 5.4 1.017.011.5
2014-Sep-14 10:11N 57°16' E 019°47'913.4
2014-Sep-14 09:29N 57°08' E 019°38'4183.7
2014-Sep-14 09:00N 57°48' E 019°30'5572.3 070 / 171026.8 5.4 2.016.014.3
2014-Sep-14 08:14N 56°53' E 019°24'911.1
2014-Sep-14 07:24N 56°45' E 019°16'911.0
2014-Sep-14 06:34N 56°37' E 019°08'1513.5
2014-Sep-14 05:25N 56°23' E 018°54'1213.2
2014-Sep-14 04:32N 56°15' E 018°40'1313.3
2014-Sep-14 03:33N 56°08' E 018°20'1119.9
2014-Sep-14 03:00N 56°00' E 018°06'7 9.2 050 / 171023.6 5.4 1.517.216.9
2014-Sep-14 02:15N 55°59' E 017°54'912.9
2014-Sep-14 01:33N 55°55' E 017°40'1424.9
2014-Sep-14 01:00N 55°48' E 017°18'6012.1 050 / 201024.5 5.4 18.016.3
2014-Sep-13 20:00N 55°30' E 015°36'3111.5 030 / 271019.1 2.2 2.017.015.3
2014-Sep-13 17:18N 55°19' E 014°45'6 8.4
2014-Sep-13 16:33N 55°14' E 014°40'813.9
2014-Sep-13 16:00N 55°06' E 014°42'1126.1 040 / 171023.0 5.4 2.017.016.2
2014-Sep-13 15:33N 55°06' E 014°22'1119.5
2014-Sep-13 15:00N 55°00' E 014°06'14 9.7 040 / 181023.2 5.4 2.017.016.2
2014-Sep-13 13:33N 54°56' E 013°43'1323.5
2014-Sep-13 13:00N 54°48' E 013°24'4 8.7 060 / 151023.0 2.2 1.017.016.2
2014-Sep-13 12:33N 54°52' E 013°22'1312.8
2014-Sep-13 11:33N 54°47' E 013°01'1312.8
2014-Sep-13 10:34N 54°43' E 012°40'1525.8
2014-Sep-13 10:00N 54°36' E 012°18'2 4.1 040 / 161023.0 1.1 1.516.014.3
2014-Sep-13 09:34N 54°36' E 012°21'1312.5
2014-Sep-13 08:34N 54°26' E 012°10'1312.7
2014-Sep-13 07:33N 54°25' E 011°48'1313.3
2014-Sep-13 06:33N 54°30' E 011°27'1313.0
2014-Sep-13 05:33N 54°35' E 011°06'1211.7
2014-Sep-13 04:33N 54°38' E 010°47'1 0.1
2014-Sep-13 01:08N 54°38' E 010°46'0 0.0
2014-Sep-12 22:08N 54°38' E 010°46'0 0.0
2014-Sep-12 20:20N 54°38' E 010°46'0 0.1
2014-Sep-12 19:32N 54°38' E 010°46'0 0.0
2014-Sep-12 17:20N 54°38' E 010°46'0 0.0
2014-Sep-12 16:26N 54°38' E 010°46'3 7.3
2014-Sep-12 16:00N 54°36' E 010°42'3 1.7 050 / 101023.610.8 0.519.515.3
2014-Sep-12 14:05N 54°38' E 010°46'0 0.0
2014-Sep-12 13:05N 54°38' E 010°46'  
Track history (hours):
 
Tides and Currents Weather Stations Pressure Air Temp Water Temp Dewpoint Dewpoint Depression Visibility Wind Speed Wind Dir Waves Ship Positions

British Ensign

Last reported at 2014-Sep-22 13:00 UTC. Time now 2014-Sep-22 16:16 UTC.
Position N 56°54' E 019°18'.

Length 184.2 m; beam 27.4 m; draft 11.3 m.

Type: Ship. MMSI: 235010980.

Barometer 1001.2 mb
Air temperature 16.5 ° C
Visibility: greater than 5.4 NM
Dewpoint 9.9 ° C
Water temperature 15.0 ° C

Date/timePositionNaut miles runAvg speedWind from/ knotsBaromVisibWave heightAir tempDewpointWater temp
2014-Sep-22 13:00N 56°54' E 019°18'10114.4 1001.2 5.4 16.5 9.915.0
2014-Sep-22 06:00N 58°24' E 020°42'10512.4 210 / 9998.610.8 0.515.510.8
2014-Sep-21 21:33N 59°36' E 023°09'1313.2
2014-Sep-21 20:33N 59°39' E 023°34'1313.1
2014-Sep-21 19:33N 59°43' E 023°59'1313.1
2014-Sep-21 18:33N 59°47' E 024°24'1812.9
2014-Sep-21 17:09N 59°51' E 024°59'427.8
2014-Sep-21 17:00N 59°48' E 025°06'1113.5 110 / 301003.8 5.4 0.515.011.3
2014-Sep-21 16:12N 59°54' E 025°23'1012.4
2014-Sep-21 15:23N 60°03' E 025°35'  
2014-Sep-19 04:14N 60°14' E 025°35'1112.1
2014-Sep-19 03:18N 60°03' E 025°34'3 1.5
2014-Sep-19 01:00N 60°00' E 025°30'1 0.3 180 / 61024.3 5.4 16.010.3
2014-Sep-18 21:16N 60°01' E 025°30'0 0.0
2014-Sep-18 20:10N 60°01' E 025°30'0 0.0
2014-Sep-18 19:31N 60°01' E 025°30'0 0.0
2014-Sep-18 18:31N 60°01' E 025°30'3 5.9
2014-Sep-18 18:00N 60°00' E 025°24'3 6.6 170 / 81024.8 5.4 15.010.3
2014-Sep-18 17:31N 60°01' E 025°30'0 0.0
2014-Sep-18 16:31N 60°01' E 025°30'3 5.9
2014-Sep-18 16:00N 60°00' E 025°24'3 4.1 230 / 31027.2 5.4 15.0 8.0
2014-Sep-18 15:13N 60°01' E 025°30'0 0.0
2014-Sep-18 14:31N 60°01' E 025°30'1 0.8
2014-Sep-18 13:00N 60°00' E 025°30'1 0.5 1027.1 5.4 17.011.5
2014-Sep-18 10:28N 60°01' E 025°30'0 0.0
2014-Sep-18 09:28N 60°01' E 025°30'0 0.1
2014-Sep-18 08:31N 60°01' E 025°30'0 0.0
2014-Sep-18 07:19N 60°01' E 025°30'0 0.0
2014-Sep-18 06:31N 60°01' E 025°30'0 0.0
2014-Sep-18 05:31N 60°01' E 025°30'0 0.0
2014-Sep-18 04:31N 60°01' E 025°30'0 0.0
2014-Sep-18 01:25N 60°01' E 025°30'3 2.2
2014-Sep-18 00:00N 60°00' E 025°24'3 5.5 1027.3 5.4 15.0 9.2
2014-Sep-17 23:25N 60°01' E 025°30'0 0.0
2014-Sep-17 22:31N 60°01' E 025°30'0 0.0
2014-Sep-17 21:25N 60°01' E 025°30'0 0.0
2014-Sep-17 20:31N 60°01' E 025°30'0 0.0
2014-Sep-17 19:31N 60°01' E 025°30'0 0.0
2014-Sep-17 18:19N 60°01' E 025°30'0 0.0
2014-Sep-17 16:31N 60°01' E 025°30'0 0.0
2014-Sep-17 13:25N 60°01' E 025°30'3 7.3
2014-Sep-17 13:00N 60°00' E 025°24'3 5.0 1028.4 5.4 16.010.3
2014-Sep-17 12:22N 60°01' E 025°30'0 0.0
2014-Sep-17 11:31N 60°01' E 025°30'0 0.0
2014-Sep-17 10:31N 60°01' E 025°30'0 0.0
2014-Sep-17 09:31N 60°01' E 025°30'3 5.9
2014-Sep-17 09:00N 60°00' E 025°24'3 6.6 190 / 71029.110.8 16.0 9.3
2014-Sep-17 08:31N 60°01' E 025°30'0 0.0
2014-Sep-17 07:25N 60°01' E 025°30'0 0.0
2014-Sep-17 06:31N 60°01' E 025°30'0 0.0
2014-Sep-17 05:28N 60°01' E 025°30'3 6.5
2014-Sep-17 05:00N 60°00' E 025°24'3 4.6 14.8 9.6
2014-Sep-17 04:19N 60°01' E 025°30'0 0.0
2014-Sep-17 03:31N 60°01' E 025°30'0 0.0
2014-Sep-17 02:22N 60°01' E 025°30'0 0.0
2014-Sep-17 01:28N 60°01' E 025°30'0 0.0
2014-Sep-17 00:10N 60°01' E 025°30'0 0.0
2014-Sep-16 23:25N 60°01' E 025°30'0 0.0
2014-Sep-16 22:31N 60°01' E 025°30'0 0.0
2014-Sep-16 21:19N 60°01' E 025°30'3 9.4
2014-Sep-16 21:00N 60°00' E 025°24'3 6.6 160 / 31029.8 5.4 14.010.2
2014-Sep-16 20:31N 60°01' E 025°30'0 0.0
2014-Sep-16 19:31N 60°01' E 025°30'0 0.0
2014-Sep-16 18:31N 60°01' E 025°30'0 0.0
2014-Sep-16 17:31N 60°01' E 025°30'1 2.4
2014-Sep-16 17:00N 60°00' E 025°30'1 2.4 100 / 31032.5 5.4 15.0 9.2
2014-Sep-16 16:28N 60°01' E 025°30'3 6.3
2014-Sep-16 16:00N 60°00' E 025°24'0 0.0 1029.910.8 16.010.3
2014-Sep-16 15:00N 60°00' E 025°24'3 0.4 1029.8 5.4 16.010.3
2014-Sep-16 07:31N 60°01' E 025°30'0 0.1
2014-Sep-16 06:31N 60°01' E 025°30'0 0.0
2014-Sep-16 05:31N 60°01' E 025°30'0 0.0
2014-Sep-16 04:22N 60°01' E 025°30'0 0.0
2014-Sep-16 03:31N 60°01' E 025°30'0 0.0
2014-Sep-16 02:31N 60°01' E 025°30'0 0.1
2014-Sep-16 01:31N 60°01' E 025°29'0 0.1
2014-Sep-16 00:28N 60°01' E 025°29'0 0.0
2014-Sep-15 23:31N 60°01' E 025°30'0 0.0
2014-Sep-15 22:31N 60°01' E 025°30'0 0.0
2014-Sep-15 21:31N 60°01' E 025°30'0 0.1
2014-Sep-15 20:28N 60°01' E 025°30'0 0.0
2014-Sep-15 17:07N 60°01' E 025°30'0 0.0
2014-Sep-15 16:31N 60°01' E 025°30'0 0.0
2014-Sep-15 15:19N 60°01' E 025°30'0 0.0
2014-Sep-15 14:31N 60°01' E 025°30'0 0.0
2014-Sep-15 13:16N 60°01' E 025°30'0 0.1
2014-Sep-15 12:31N 60°01' E 025°30'0 0.1
2014-Sep-15 11:31N 60°01' E 025°29'0 0.0
2014-Sep-15 09:31N 60°01' E 025°30'3 5.6
2014-Sep-15 09:00N 60°00' E 025°24'3 6.3 050 / 41031.410.8 0.516.011.4
2014-Sep-15 08:31N 60°01' E 025°30'0 0.0
2014-Sep-15 07:31N 60°01' E 025°30'3 5.7
2014-Sep-15 07:00N 60°00' E 025°24'3 6.6 320 / 41029.810.8 15.012.3
2014-Sep-15 06:31N 60°01' E 025°30'0 0.0
2014-Sep-15 05:34N 60°01' E 025°30'7 6.7
2014-Sep-15 04:34N 59°54' E 025°29'1212.1
2014-Sep-15 03:33N 59°49' E 025°07'1425.5
2014-Sep-15 03:00N 59°42' E 024°42'3 7.1 360 / 31031.510.8 15.513.0
2014-Sep-15 02:33N 59°45' E 024°41'1413.8
2014-Sep-15 01:33N 59°42' E 024°14'1413.6
2014-Sep-15 00:33N 59°38' E 023°48'1414.0
2014-Sep-14 23:33N 59°34' E 023°22'1414.0
2014-Sep-14 22:32N 59°30' E 022°55'915.8
2014-Sep-14 22:00N 59°24' E 022°42'4949.3 340 / 101031.1 5.4 16.010.3
2014-Sep-14 21:00N 59°18' E 021°06'4812.0 350 / 101030.8 5.4 16.010.3
2014-Sep-14 17:00N 58°30' E 021°12'5814.4 060 / 91030.410.8 0.516.7 9.7
2014-Sep-14 13:00N 57°42' E 020°12'3010.6 090 / 181028.8 5.4 1.017.011.5
2014-Sep-14 10:11N 57°16' E 019°47'913.4
2014-Sep-14 09:29N 57°08' E 019°38'4183.7
2014-Sep-14 09:00N 57°48' E 019°30'5572.3 070 / 171026.8 5.4 2.016.014.3
2014-Sep-14 08:14N 56°53' E 019°24'911.1
2014-Sep-14 07:24N 56°45' E 019°16'911.0
2014-Sep-14 06:34N 56°37' E 019°08'1513.5
2014-Sep-14 05:25N 56°23' E 018°54'1213.2
2014-Sep-14 04:32N 56°15' E 018°40'1313.3
2014-Sep-14 03:33N 56°08' E 018°20'1119.9
2014-Sep-14 03:00N 56°00' E 018°06'7 9.2 050 / 171023.6 5.4 1.517.216.9
2014-Sep-14 02:15N 55°59' E 017°54'912.9
2014-Sep-14 01:33N 55°55' E 017°40'1424.9
2014-Sep-14 01:00N 55°48' E 017°18'6012.1 050 / 201024.5 5.4 18.016.3
2014-Sep-13 20:00N 55°30' E 015°36'3111.5 030 / 271019.1 2.2 2.017.015.3
2014-Sep-13 17:18N 55°19' E 014°45'6 8.4
2014-Sep-13 16:33N 55°14' E 014°40'813.9
2014-Sep-13 16:00N 55°06' E 014°42'1126.1 040 / 171023.0 5.4 2.017.016.2
2014-Sep-13 15:33N 55°06' E 014°22'1119.5
2014-Sep-13 15:00N 55°00' E 014°06'14 9.7 040 / 181023.2 5.4 2.017.016.2
2014-Sep-13 13:33N 54°56' E 013°43'1323.5
2014-Sep-13 13:00N 54°48' E 013°24'4 8.7 060 / 151023.0 2.2 1.017.016.2
2014-Sep-13 12:33N 54°52' E 013°22'1312.8
2014-Sep-13 11:33N 54°47' E 013°01'1312.8
2014-Sep-13 10:34N 54°43' E 012°40'1525.8
2014-Sep-13 10:00N 54°36' E 012°18'2 4.1 040 / 161023.0 1.1 1.516.014.3
2014-Sep-13 09:34N 54°36' E 012°21'1312.5
2014-Sep-13 08:34N 54°26' E 012°10'1312.7
2014-Sep-13 07:33N 54°25' E 011°48'1313.3
2014-Sep-13 06:33N 54°30' E 011°27'1313.0
2014-Sep-13 05:33N 54°35' E 011°06'1211.7
2014-Sep-13 04:33N 54°38' E 010°47'1 0.1
2014-Sep-13 01:08N 54°38' E 010°46'0 0.0
2014-Sep-12 22:08N 54°38' E 010°46'0 0.0
2014-Sep-12 20:20N 54°38' E 010°46'0 0.1
2014-Sep-12 19:32N 54°38' E 010°46'0 0.0
2014-Sep-12 17:20N 54°38' E 010°46'0 0.0
2014-Sep-12 16:26N 54°38' E 010°46'3 7.3
2014-Sep-12 16:00N 54°36' E 010°42'3 1.7 050 / 101023.610.8 0.519.515.3
2014-Sep-12 14:05N 54°38' E 010°46'0 0.0
2014-Sep-12 13:05N 54°38' E 010°46'  

Dump ship's entire track history